sensor_id;sensor_type;location;lat;lon;timestamp;temperature;humidity
8436;DHT22;4255;48.730;9.156;2023-02-17T00:02:09;10.10;99.90
8436;DHT22;4255;48.730;9.156;2023-02-17T00:04:35;10.00;99.90
8436;DHT22;4255;48.730;9.156;2023-02-17T00:07:00;10.00;99.90
8436;DHT22;4255;48.730;9.156;2023-02-17T00:09:26;10.10;99.90
8436;DHT22;4255;48.730;9.156;2023-02-17T00:11:51;10.00;99.90
8436;DHT22;4255;48.730;9.156;2023-02-17T00:14:17;9.90;99.90
8436;DHT22;4255;48.730;9.156;2023-02-17T00:16:43;9.90;99.90
8436;DHT22;4255;48.730;9.156;2023-02-17T00:19:11;10.10;99.90
8436;DHT22;4255;48.730;9.156;2023-02-17T00:21:56;10.10;99.90
8436;DHT22;4255;48.730;9.156;2023-02-17T00:24:24;10.10;99.90
8436;DHT22;4255;48.730;9.156;2023-02-17T00:26:50;10.10;99.90
8436;DHT22;4255;48.730;9.156;2023-02-17T00:29:15;10.10;99.90
8436;DHT22;4255;48.730;9.156;2023-02-17T00:31:43;10.10;99.90
8436;DHT22;4255;48.730;9.156;2023-02-17T00:34:09;9.90;99.90
8436;DHT22;4255;48.730;9.156;2023-02-17T00:36:34;9.90;99.90
8436;DHT22;4255;48.730;9.156;2023-02-17T00:39:00;9.90;99.90
8436;DHT22;4255;48.730;9.156;2023-02-17T00:41:27;10.00;99.90
8436;DHT22;4255;48.730;9.156;2023-02-17T00:43:53;10.00;99.90
8436;DHT22;4255;48.730;9.156;2023-02-17T00:46:19;10.10;99.90
8436;DHT22;4255;48.730;9.156;2023-02-17T00:48:45;10.30;99.90
8436;DHT22;4255;48.730;9.156;2023-02-17T00:51:11;10.20;99.90
8436;DHT22;4255;48.730;9.156;2023-02-17T00:53:37;10.20;99.90
8436;DHT22;4255;48.730;9.156;2023-02-17T00:56:03;10.20;99.90
8436;DHT22;4255;48.730;9.156;2023-02-17T00:58:29;10.10;99.90
8436;DHT22;4255;48.730;9.156;2023-02-17T01:00:56;10.10;99.90
8436;DHT22;4255;48.730;9.156;2023-02-17T01:03:22;10.00;99.90
8436;DHT22;4255;48.730;9.156;2023-02-17T01:05:48;10.10;99.90
8436;DHT22;4255;48.730;9.156;2023-02-17T01:08:16;10.20;99.90
8436;DHT22;4255;48.730;9.156;2023-02-17T01:10:43;10.20;99.90
8436;DHT22;4255;48.730;9.156;2023-02-17T01:13:10;10.10;99.90
8436;DHT22;4255;48.730;9.156;2023-02-17T01:15:47;10.10;99.90
8436;DHT22;4255;48.730;9.156;2023-02-17T01:18:14;10.00;99.90
8436;DHT22;4255;48.730;9.156;2023-02-17T01:20:40;10.00;99.90
8436;DHT22;4255;48.730;9.156;2023-02-17T01:23:07;10.10;99.90
8436;DHT22;4255;48.730;9.156;2023-02-17T01:25:41;9.90;99.90
8436;DHT22;4255;48.730;9.156;2023-02-17T01:28:07;9.90;99.90
8436;DHT22;4255;48.730;9.156;2023-02-17T01:30:33;9.90;99.90
8436;DHT22;4255;48.730;9.156;2023-02-17T01:32:59;9.90;99.90
8436;DHT22;4255;48.730;9.156;2023-02-17T01:35:24;10.00;99.90
8436;DHT22;4255;48.730;9.156;2023-02-17T01:37:50;10.10;99.90
8436;DHT22;4255;48.730;9.156;2023-02-17T01:40:16;10.00;99.90
8436;DHT22;4255;48.730;9.156;2023-02-17T01:42:42;10.10;99.90
8436;DHT22;4255;48.730;9.156;2023-02-17T01:48:35;10.20;99.90
8436;DHT22;4255;48.730;9.156;2023-02-17T01:50:41;10.30;99.90
8436;DHT22;4255;48.730;9.156;2023-02-17T01:53:08;10.30;99.90
8436;DHT22;4255;48.730;9.156;2023-02-17T01:55:37;10.30;99.90
8436;DHT22;4255;48.730;9.156;2023-02-17T01:58:03;10.40;99.90
8436;DHT22;4255;48.730;9.156;2023-02-17T02:00:31;10.40;99.90
8436;DHT22;4255;48.730;9.156;2023-02-17T02:02:59;10.40;99.90
8436;DHT22;4255;48.730;9.156;2023-02-17T02:05:26;10.40;99.90
8436;DHT22;4255;48.730;9.156;2023-02-17T02:07:52;10.50;99.90
8436;DHT22;4255;48.730;9.156;2023-02-17T02:10:18;10.50;99.90
8436;DHT22;4255;48.730;9.156;2023-02-17T02:12:44;10.40;99.90
8436;DHT22;4255;48.730;9.156;2023-02-17T02:15:16;10.40;99.90
8436;DHT22;4255;48.730;9.156;2023-02-17T02:20:41;10.30;99.90
8436;DHT22;4255;48.730;9.156;2023-02-17T02:31:45;10.10;99.90
8436;DHT22;4255;48.730;9.156;2023-02-17T02:34:24;10.20;99.90
8436;DHT22;4255;48.730;9.156;2023-02-17T02:36:59;10.10;99.90
8436;DHT22;4255;48.730;9.156;2023-02-17T02:39:31;10.10;99.90
8436;DHT22;4255;48.730;9.156;2023-02-17T02:42:01;10.10;99.90
8436;DHT22;4255;48.730;9.156;2023-02-17T02:44:27;10.20;99.90
8436;DHT22;4255;48.730;9.156;2023-02-17T02:47:34;10.10;99.90
8436;DHT22;4255;48.730;9.156;2023-02-17T02:49:49;10.00;99.90
8436;DHT22;4255;48.730;9.156;2023-02-17T02:52:30;9.90;99.90
8436;DHT22;4255;48.730;9.156;2023-02-17T02:55:07;10.00;99.90
8436;DHT22;4255;48.730;9.156;2023-02-17T02:57:56;10.10;99.90
8436;DHT22;4255;48.730;9.156;2023-02-17T03:00:40;10.10;99.90
8436;DHT22;4255;48.730;9.156;2023-02-17T03:03:17;9.90;99.90
8436;DHT22;4255;48.730;9.156;2023-02-17T03:08:37;10.20;99.90
8436;DHT22;4255;48.730;9.156;2023-02-17T03:11:04;10.30;99.90
8436;DHT22;4255;48.730;9.156;2023-02-17T03:13:35;10.30;99.90
8436;DHT22;4255;48.730;9.156;2023-02-17T03:16:04;10.30;99.90
8436;DHT22;4255;48.730;9.156;2023-02-17T03:18:31;10.30;99.90
8436;DHT22;4255;48.730;9.156;2023-02-17T03:21:02;10.40;99.90
8436;DHT22;4255;48.730;9.156;2023-02-17T03:23:29;10.40;99.90
8436;DHT22;4255;48.730;9.156;2023-02-17T03:25:54;10.50;99.90
8436;DHT22;4255;48.730;9.156;2023-02-17T03:28:20;10.40;99.90
8436;DHT22;4255;48.730;9.156;2023-02-17T03:30:45;10.40;99.90
8436;DHT22;4255;48.730;9.156;2023-02-17T03:33:11;10.50;99.90
8436;DHT22;4255;48.730;9.156;2023-02-17T03:35:37;10.50;99.90
8436;DHT22;4255;48.730;9.156;2023-02-17T03:38:03;10.70;99.90
8436;DHT22;4255;48.730;9.156;2023-02-17T03:40:28;10.80;99.90
8436;DHT22;4255;48.730;9.156;2023-02-17T03:42:55;10.80;99.90
8436;DHT22;4255;48.730;9.156;2023-02-17T03:45:22;10.70;99.90
8436;DHT22;4255;48.730;9.156;2023-02-17T03:47:47;10.70;99.90
8436;DHT22;4255;48.730;9.156;2023-02-17T03:50:13;10.40;99.90
8436;DHT22;4255;48.730;9.156;2023-02-17T03:52:38;10.40;99.90
8436;DHT22;4255;48.730;9.156;2023-02-17T03:55:04;10.40;99.90
8436;DHT22;4255;48.730;9.156;2023-02-17T03:57:30;10.40;99.90
8436;DHT22;4255;48.730;9.156;2023-02-17T03:59:57;10.40;99.90
8436;DHT22;4255;48.730;9.156;2023-02-17T04:02:22;10.40;99.90
8436;DHT22;4255;48.730;9.156;2023-02-17T04:04:48;10.50;99.90
8436;DHT22;4255;48.730;9.156;2023-02-17T04:07:14;10.40;99.90
8436;DHT22;4255;48.730;9.156;2023-02-17T04:09:39;10.50;99.90
8436;DHT22;4255;48.730;9.156;2023-02-17T04:12:05;10.50;99.90
8436;DHT22;4255;48.730;9.156;2023-02-17T04:14:31;10.40;99.90
8436;DHT22;4255;48.730;9.156;2023-02-17T04:16:56;10.40;99.90
8436;DHT22;4255;48.730;9.156;2023-02-17T04:19:22;10.40;99.90
8436;DHT22;4255;48.730;9.156;2023-02-17T04:21:47;10.40;99.90
8436;DHT22;4255;48.730;9.156;2023-02-17T04:24:13;10.40;99.90
8436;DHT22;4255;48.730;9.156;2023-02-17T04:26:38;10.20;99.90
8436;DHT22;4255;48.730;9.156;2023-02-17T04:29:04;10.30;99.90
8436;DHT22;4255;48.730;9.156;2023-02-17T04:31:30;10.20;99.90
8436;DHT22;4255;48.730;9.156;2023-02-17T04:33:55;10.00;99.90
8436;DHT22;4255;48.730;9.156;2023-02-17T04:36:21;9.90;99.90
8436;DHT22;4255;48.730;9.156;2023-02-17T04:38:47;9.90;99.90
8436;DHT22;4255;48.730;9.156;2023-02-17T04:41:13;9.90;99.90
8436;DHT22;4255;48.730;9.156;2023-02-17T04:43:38;9.80;99.90
8436;DHT22;4255;48.730;9.156;2023-02-17T04:46:04;9.80;99.90
8436;DHT22;4255;48.730;9.156;2023-02-17T04:48:30;9.80;99.90
8436;DHT22;4255;48.730;9.156;2023-02-17T04:50:55;9.90;99.90
8436;DHT22;4255;48.730;9.156;2023-02-17T04:53:21;9.80;99.90
8436;DHT22;4255;48.730;9.156;2023-02-17T04:55:48;9.90;99.90
8436;DHT22;4255;48.730;9.156;2023-02-17T04:58:17;10.00;99.90
8436;DHT22;4255;48.730;9.156;2023-02-17T05:00:44;10.10;99.90
8436;DHT22;4255;48.730;9.156;2023-02-17T05:03:10;10.10;99.90
8436;DHT22;4255;48.730;9.156;2023-02-17T05:05:36;10.10;99.90
8436;DHT22;4255;48.730;9.156;2023-02-17T05:08:01;10.10;99.90
8436;DHT22;4255;48.730;9.156;2023-02-17T05:10:27;10.00;99.90
8436;DHT22;4255;48.730;9.156;2023-02-17T05:12:53;9.90;99.90
8436;DHT22;4255;48.730;9.156;2023-02-17T05:15:18;9.90;99.90
8436;DHT22;4255;48.730;9.156;2023-02-17T05:17:44;9.80;99.90
8436;DHT22;4255;48.730;9.156;2023-02-17T05:20:10;9.90;99.90
8436;DHT22;4255;48.730;9.156;2023-02-17T05:22:36;10.00;99.90
8436;DHT22;4255;48.730;9.156;2023-02-17T05:25:02;10.00;99.90
8436;DHT22;4255;48.730;9.156;2023-02-17T05:27:28;10.20;99.90
8436;DHT22;4255;48.730;9.156;2023-02-17T05:29:53;10.30;99.90
8436;DHT22;4255;48.730;9.156;2023-02-17T05:32:19;10.40;99.90
8436;DHT22;4255;48.730;9.156;2023-02-17T05:34:44;10.50;99.90
8436;DHT22;4255;48.730;9.156;2023-02-17T05:37:10;10.50;99.90
8436;DHT22;4255;48.730;9.156;2023-02-17T05:39:36;10.30;99.90
8436;DHT22;4255;48.730;9.156;2023-02-17T05:42:01;10.20;99.90
8436;DHT22;4255;48.730;9.156;2023-02-17T05:44:27;10.20;99.90
8436;DHT22;4255;48.730;9.156;2023-02-17T05:46:52;10.20;99.90
8436;DHT22;4255;48.730;9.156;2023-02-17T05:49:18;10.30;99.90
8436;DHT22;4255;48.730;9.156;2023-02-17T05:51:44;10.40;99.90
8436;DHT22;4255;48.730;9.156;2023-02-17T05:54:09;10.40;99.90
8436;DHT22;4255;48.730;9.156;2023-02-17T05:56:35;10.40;99.90
8436;DHT22;4255;48.730;9.156;2023-02-17T05:59:00;10.40;99.90
8436;DHT22;4255;48.730;9.156;2023-02-17T06:01:26;10.40;99.90
8436;DHT22;4255;48.730;9.156;2023-02-17T06:03:52;10.60;99.90
8436;DHT22;4255;48.730;9.156;2023-02-17T06:06:17;10.70;99.90
8436;DHT22;4255;48.730;9.156;2023-02-17T06:08:43;10.80;99.90
8436;DHT22;4255;48.730;9.156;2023-02-17T06:11:08;11.00;99.90
8436;DHT22;4255;48.730;9.156;2023-02-17T06:13:34;10.60;99.90
8436;DHT22;4255;48.730;9.156;2023-02-17T06:16:00;10.60;99.90
8436;DHT22;4255;48.730;9.156;2023-02-17T06:18:27;10.60;99.90
8436;DHT22;4255;48.730;9.156;2023-02-17T06:20:56;10.40;99.90
8436;DHT22;4255;48.730;9.156;2023-02-17T06:23:23;10.50;99.90
8436;DHT22;4255;48.730;9.156;2023-02-17T06:25:48;10.50;99.90
8436;DHT22;4255;48.730;9.156;2023-02-17T06:28:14;10.40;99.90
8436;DHT22;4255;48.730;9.156;2023-02-17T06:30:40;10.40;99.90
8436;DHT22;4255;48.730;9.156;2023-02-17T06:33:05;10.40;99.90
8436;DHT22;4255;48.730;9.156;2023-02-17T06:35:31;10.40;99.90
8436;DHT22;4255;48.730;9.156;2023-02-17T06:37:56;10.50;99.90
8436;DHT22;4255;48.730;9.156;2023-02-17T06:40:22;10.40;99.90
8436;DHT22;4255;48.730;9.156;2023-02-17T06:42:48;10.40;99.90
8436;DHT22;4255;48.730;9.156;2023-02-17T06:45:14;10.40;99.90
8436;DHT22;4255;48.730;9.156;2023-02-17T06:47:39;10.30;99.90
8436;DHT22;4255;48.730;9.156;2023-02-17T06:50:06;10.50;99.90
8436;DHT22;4255;48.730;9.156;2023-02-17T06:52:31;10.60;99.90
8436;DHT22;4255;48.730;9.156;2023-02-17T06:54:57;10.70;99.90
8436;DHT22;4255;48.730;9.156;2023-02-17T06:57:23;10.80;99.90
8436;DHT22;4255;48.730;9.156;2023-02-17T06:59:48;10.90;99.90
8436;DHT22;4255;48.730;9.156;2023-02-17T07:02:14;10.80;99.90
8436;DHT22;4255;48.730;9.156;2023-02-17T07:04:40;10.80;99.90
8436;DHT22;4255;48.730;9.156;2023-02-17T07:07:07;10.70;99.90
8436;DHT22;4255;48.730;9.156;2023-02-17T07:09:33;10.70;99.90
8436;DHT22;4255;48.730;9.156;2023-02-17T07:11:59;10.70;99.90
8436;DHT22;4255;48.730;9.156;2023-02-17T07:14:25;10.60;99.90
8436;DHT22;4255;48.730;9.156;2023-02-17T07:16:52;10.40;99.90
8436;DHT22;4255;48.730;9.156;2023-02-17T07:19:18;10.40;99.90
8436;DHT22;4255;48.730;9.156;2023-02-17T07:21:44;10.40;99.90
8436;DHT22;4255;48.730;9.156;2023-02-17T07:24:10;10.50;99.90
8436;DHT22;4255;48.730;9.156;2023-02-17T07:26:36;10.50;99.90
8436;DHT22;4255;48.730;9.156;2023-02-17T07:29:03;10.60;99.90
8436;DHT22;4255;48.730;9.156;2023-02-17T07:31:29;10.60;99.90
8436;DHT22;4255;48.730;9.156;2023-02-17T07:33:55;10.60;99.90
8436;DHT22;4255;48.730;9.156;2023-02-17T07:36:20;10.70;99.90
8436;DHT22;4255;48.730;9.156;2023-02-17T07:38:46;10.60;99.90
8436;DHT22;4255;48.730;9.156;2023-02-17T07:41:14;10.80;99.90
8436;DHT22;4255;48.730;9.156;2023-02-17T07:43:40;10.70;99.90
8436;DHT22;4255;48.730;9.156;2023-02-17T07:46:08;10.80;99.90
8436;DHT22;4255;48.730;9.156;2023-02-17T07:48:34;10.90;99.90
8436;DHT22;4255;48.730;9.156;2023-02-17T07:51:08;11.00;99.90
8436;DHT22;4255;48.730;9.156;2023-02-17T07:53:35;10.90;99.90
8436;DHT22;4255;48.730;9.156;2023-02-17T07:56:05;10.90;99.90
8436;DHT22;4255;48.730;9.156;2023-02-17T07:58:35;10.90;99.90
8436;DHT22;4255;48.730;9.156;2023-02-17T08:01:22;11.00;99.90
8436;DHT22;4255;48.730;9.156;2023-02-17T08:03:49;10.90;99.90
8436;DHT22;4255;48.730;9.156;2023-02-17T08:06:17;10.60;99.90
8436;DHT22;4255;48.730;9.156;2023-02-17T08:08:42;10.70;99.90
8436;DHT22;4255;48.730;9.156;2023-02-17T08:11:27;10.70;99.90
8436;DHT22;4255;48.730;9.156;2023-02-17T08:14:12;10.70;99.90
8436;DHT22;4255;48.730;9.156;2023-02-17T08:16:37;10.90;99.90
8436;DHT22;4255;48.730;9.156;2023-02-17T08:19:03;10.90;99.90
8436;DHT22;4255;48.730;9.156;2023-02-17T08:21:29;10.90;99.90
8436;DHT22;4255;48.730;9.156;2023-02-17T08:23:54;11.00;99.90
8436;DHT22;4255;48.730;9.156;2023-02-17T08:26:21;11.10;99.90
8436;DHT22;4255;48.730;9.156;2023-02-17T08:28:47;11.20;99.90
8436;DHT22;4255;48.730;9.156;2023-02-17T08:31:32;11.10;99.90
8436;DHT22;4255;48.730;9.156;2023-02-17T08:34:04;11.10;99.90
8436;DHT22;4255;48.730;9.156;2023-02-17T08:36:30;11.20;99.90
8436;DHT22;4255;48.730;9.156;2023-02-17T08:38:58;11.10;99.90
8436;DHT22;4255;48.730;9.156;2023-02-17T08:41:28;11.00;99.90
8436;DHT22;4255;48.730;9.156;2023-02-17T08:43:55;10.80;99.90
8436;DHT22;4255;48.730;9.156;2023-02-17T08:46:21;10.70;99.90
8436;DHT22;4255;48.730;9.156;2023-02-17T08:48:47;10.70;99.90
8436;DHT22;4255;48.730;9.156;2023-02-17T08:51:18;10.70;99.90
8436;DHT22;4255;48.730;9.156;2023-02-17T08:53:49;10.80;99.90
8436;DHT22;4255;48.730;9.156;2023-02-17T08:56:15;11.00;99.90
8436;DHT22;4255;48.730;9.156;2023-02-17T08:58:40;11.20;99.90
8436;DHT22;4255;48.730;9.156;2023-02-17T09:01:06;11.40;99.90
8436;DHT22;4255;48.730;9.156;2023-02-17T09:03:35;11.50;99.90
8436;DHT22;4255;48.730;9.156;2023-02-17T09:06:05;11.40;99.90
8436;DHT22;4255;48.730;9.156;2023-02-17T09:08:31;11.30;99.90
8436;DHT22;4255;48.730;9.156;2023-02-17T09:10:57;11.20;99.90
8436;DHT22;4255;48.730;9.156;2023-02-17T09:13:23;11.10;99.90
8436;DHT22;4255;48.730;9.156;2023-02-17T09:15:48;11.10;99.90
8436;DHT22;4255;48.730;9.156;2023-02-17T09:18:18;11.00;99.90
8436;DHT22;4255;48.730;9.156;2023-02-17T09:20:44;10.90;99.90
8436;DHT22;4255;48.730;9.156;2023-02-17T09:23:09;11.10;99.90
8436;DHT22;4255;48.730;9.156;2023-02-17T09:25:35;11.20;99.90
8436;DHT22;4255;48.730;9.156;2023-02-17T09:28:01;11.20;99.90
8436;DHT22;4255;48.730;9.156;2023-02-17T09:30:26;11.10;99.90
8436;DHT22;4255;48.730;9.156;2023-02-17T09:32:52;11.00;99.90
8436;DHT22;4255;48.730;9.156;2023-02-17T09:35:18;11.10;99.90
8436;DHT22;4255;48.730;9.156;2023-02-17T09:37:44;11.20;99.90
8436;DHT22;4255;48.730;9.156;2023-02-17T09:40:22;11.40;99.90
8436;DHT22;4255;48.730;9.156;2023-02-17T09:42:49;11.30;99.90
8436;DHT22;4255;48.730;9.156;2023-02-17T09:45:25;11.40;99.90
8436;DHT22;4255;48.730;9.156;2023-02-17T09:47:56;11.50;99.90
8436;DHT22;4255;48.730;9.156;2023-02-17T09:50:49;11.50;99.90
8436;DHT22;4255;48.730;9.156;2023-02-17T09:53:33;11.40;99.90
8436;DHT22;4255;48.730;9.156;2023-02-17T09:56:04;11.50;99.90
8436;DHT22;4255;48.730;9.156;2023-02-17T09:58:54;11.70;99.90
8436;DHT22;4255;48.730;9.156;2023-02-17T10:01:27;11.70;99.90
8436;DHT22;4255;48.730;9.156;2023-02-17T10:04:05;11.90;99.90
8436;DHT22;4255;48.730;9.156;2023-02-17T10:06:40;12.20;99.90
8436;DHT22;4255;48.730;9.156;2023-02-17T10:12:03;12.30;99.90
8436;DHT22;4255;48.730;9.156;2023-02-17T10:14:39;12.60;99.90
8436;DHT22;4255;48.730;9.156;2023-02-17T10:20:16;12.60;99.90
8436;DHT22;4255;48.730;9.156;2023-02-17T10:22:49;12.70;99.90
8436;DHT22;4255;48.730;9.156;2023-02-17T10:25:21;12.50;99.90
8436;DHT22;4255;48.730;9.156;2023-02-17T10:28:09;12.60;99.90
8436;DHT22;4255;48.730;9.156;2023-02-17T10:31:03;12.70;99.90
8436;DHT22;4255;48.730;9.156;2023-02-17T10:33:44;12.70;99.90
8436;DHT22;4255;48.730;9.156;2023-02-17T10:39:34;12.50;99.90
8436;DHT22;4255;48.730;9.156;2023-02-17T10:42:05;12.70;99.90
8436;DHT22;4255;48.730;9.156;2023-02-17T10:44:35;12.90;99.90
8436;DHT22;4255;48.730;9.156;2023-02-17T10:47:02;13.20;99.90
8436;DHT22;4255;48.730;9.156;2023-02-17T10:49:34;13.30;99.90
8436;DHT22;4255;48.730;9.156;2023-02-17T10:52:32;13.50;99.90
8436;DHT22;4255;48.730;9.156;2023-02-17T10:57:35;13.60;99.90
8436;DHT22;4255;48.730;9.156;2023-02-17T11:00:03;13.40;99.90
8436;DHT22;4255;48.730;9.156;2023-02-17T11:02:45;13.30;99.90
8436;DHT22;4255;48.730;9.156;2023-02-17T11:05:32;13.20;99.90
8436;DHT22;4255;48.730;9.156;2023-02-17T11:08:14;13.10;99.90
8436;DHT22;4255;48.730;9.156;2023-02-17T11:10:44;13.00;99.90
8436;DHT22;4255;48.730;9.156;2023-02-17T11:13:39;13.00;99.90
8436;DHT22;4255;48.730;9.156;2023-02-17T11:16:56;13.20;99.90
8436;DHT22;4255;48.730;9.156;2023-02-17T11:19:30;13.40;99.90
8436;DHT22;4255;48.730;9.156;2023-02-17T11:22:00;13.50;99.90
8436;DHT22;4255;48.730;9.156;2023-02-17T11:24:27;13.60;99.90
8436;DHT22;4255;48.730;9.156;2023-02-17T11:27:08;13.90;99.90
8436;DHT22;4255;48.730;9.156;2023-02-17T11:29:34;14.00;99.90
8436;DHT22;4255;48.730;9.156;2023-02-17T11:32:05;13.90;99.90
8436;DHT22;4255;48.730;9.156;2023-02-17T11:34:35;13.80;99.90
8436;DHT22;4255;48.730;9.156;2023-02-17T11:37:22;13.80;99.90
8436;DHT22;4255;48.730;9.156;2023-02-17T11:39:53;13.80;99.90
8436;DHT22;4255;48.730;9.156;2023-02-17T11:42:23;13.60;99.90
8436;DHT22;4255;48.730;9.156;2023-02-17T11:44:50;13.50;99.90
8436;DHT22;4255;48.730;9.156;2023-02-17T11:47:25;13.40;99.90
8436;DHT22;4255;48.730;9.156;2023-02-17T11:56:20;13.60;99.90
8436;DHT22;4255;48.730;9.156;2023-02-17T12:03:57;13.60;99.90
8436;DHT22;4255;48.730;9.156;2023-02-17T12:09:50;13.70;99.90
8436;DHT22;4255;48.730;9.156;2023-02-17T12:20:26;13.20;99.90
8436;DHT22;4255;48.730;9.156;2023-02-17T12:37:08;13.30;99.90
8436;DHT22;4255;48.730;9.156;2023-02-17T12:39:52;13.20;99.90
8436;DHT22;4255;48.730;9.156;2023-02-17T12:42:29;13.20;99.90
8436;DHT22;4255;48.730;9.156;2023-02-17T12:45:01;13.40;99.90
8436;DHT22;4255;48.730;9.156;2023-02-17T12:50:41;13.50;99.90
8436;DHT22;4255;48.730;9.156;2023-02-17T12:53:16;13.40;99.90
8436;DHT22;4255;48.730;9.156;2023-02-17T12:55:50;13.40;99.90
8436;DHT22;4255;48.730;9.156;2023-02-17T12:58:24;13.50;99.90
8436;DHT22;4255;48.730;9.156;2023-02-17T13:01:04;13.60;99.90
8436;DHT22;4255;48.730;9.156;2023-02-17T13:03:32;13.60;99.90
8436;DHT22;4255;48.730;9.156;2023-02-17T13:06:04;13.60;99.90
8436;DHT22;4255;48.730;9.156;2023-02-17T13:08:53;13.60;99.90
8436;DHT22;4255;48.730;9.156;2023-02-17T13:11:46;13.70;99.90
8436;DHT22;4255;48.730;9.156;2023-02-17T13:14:28;13.50;99.90
8436;DHT22;4255;48.730;9.156;2023-02-17T13:16:54;13.50;99.90
8436;DHT22;4255;48.730;9.156;2023-02-17T13:19:31;13.60;99.90
8436;DHT22;4255;48.730;9.156;2023-02-17T13:21:58;13.60;99.90
8436;DHT22;4255;48.730;9.156;2023-02-17T13:24:37;13.60;99.90
8436;DHT22;4255;48.730;9.156;2023-02-17T13:29:35;13.40;99.90
8436;DHT22;4255;48.730;9.156;2023-02-17T13:32:05;13.40;99.90
8436;DHT22;4255;48.730;9.156;2023-02-17T13:34:40;13.50;99.90
8436;DHT22;4255;48.730;9.156;2023-02-17T13:37:25;13.70;99.90
8436;DHT22;4255;48.730;9.156;2023-02-17T13:42:39;13.80;99.90
8436;DHT22;4255;48.730;9.156;2023-02-17T13:47:52;13.80;99.90
8436;DHT22;4255;48.730;9.156;2023-02-17T13:50:36;13.80;99.90
8436;DHT22;4255;48.730;9.156;2023-02-17T13:53:20;14.10;99.90
8436;DHT22;4255;48.730;9.156;2023-02-17T13:55:47;14.10;99.90
8436;DHT22;4255;48.730;9.156;2023-02-17T13:58:12;14.20;99.90
8436;DHT22;4255;48.730;9.156;2023-02-17T14:00:42;14.20;99.90
8436;DHT22;4255;48.730;9.156;2023-02-17T14:03:23;13.90;99.90
8436;DHT22;4255;48.730;9.156;2023-02-17T14:05:52;13.90;99.90
8436;DHT22;4255;48.730;9.156;2023-02-17T14:08:34;13.80;99.90
8436;DHT22;4255;48.730;9.156;2023-02-17T14:11:13;13.80;99.90
8436;DHT22;4255;48.730;9.156;2023-02-17T14:13:42;13.90;99.90
8436;DHT22;4255;48.730;9.156;2023-02-17T14:16:37;13.90;99.90
8436;DHT22;4255;48.730;9.156;2023-02-17T14:19:06;14.00;99.90
8436;DHT22;4255;48.730;9.156;2023-02-17T14:21:33;14.00;99.90
8436;DHT22;4255;48.730;9.156;2023-02-17T14:23:59;14.00;99.90
8436;DHT22;4255;48.730;9.156;2023-02-17T14:29:05;14.00;99.90
8436;DHT22;4255;48.730;9.156;2023-02-17T14:31:43;14.00;99.90
8436;DHT22;4255;48.730;9.156;2023-02-17T14:36:45;14.20;99.90
8436;DHT22;4255;48.730;9.156;2023-02-17T14:39:13;14.40;99.90
8436;DHT22;4255;48.730;9.156;2023-02-17T14:41:39;14.40;99.90
8436;DHT22;4255;48.730;9.156;2023-02-17T14:44:05;14.40;99.90
8436;DHT22;4255;48.730;9.156;2023-02-17T14:46:32;14.00;99.90
8436;DHT22;4255;48.730;9.156;2023-02-17T14:48:57;13.70;99.90
8436;DHT22;4255;48.730;9.156;2023-02-17T14:51:29;13.60;99.90
8436;DHT22;4255;48.730;9.156;2023-02-17T14:53:56;13.40;99.90
8436;DHT22;4255;48.730;9.156;2023-02-17T14:56:33;13.50;99.90
8436;DHT22;4255;48.730;9.156;2023-02-17T14:59:00;13.40;99.90
8436;DHT22;4255;48.730;9.156;2023-02-17T15:01:26;13.30;99.90
8436;DHT22;4255;48.730;9.156;2023-02-17T15:03:53;13.10;99.90
8436;DHT22;4255;48.730;9.156;2023-02-17T15:06:29;13.10;99.90
8436;DHT22;4255;48.730;9.156;2023-02-17T15:08:59;13.20;99.90
8436;DHT22;4255;48.730;9.156;2023-02-17T15:11:33;13.30;99.90
8436;DHT22;4255;48.730;9.156;2023-02-17T15:14:04;13.30;99.90
8436;DHT22;4255;48.730;9.156;2023-02-17T15:16:29;13.60;99.90
8436;DHT22;4255;48.730;9.156;2023-02-17T15:18:55;13.40;99.90
8436;DHT22;4255;48.730;9.156;2023-02-17T15:21:32;13.30;99.90
8436;DHT22;4255;48.730;9.156;2023-02-17T15:24:00;13.20;99.90
8436;DHT22;4255;48.730;9.156;2023-02-17T15:26:27;13.00;99.90
8436;DHT22;4255;48.730;9.156;2023-02-17T15:28:55;13.00;99.90
8436;DHT22;4255;48.730;9.156;2023-02-17T15:31:21;12.90;99.90
8436;DHT22;4255;48.730;9.156;2023-02-17T15:33:55;13.00;99.90
8436;DHT22;4255;48.730;9.156;2023-02-17T15:36:22;13.00;99.90
8436;DHT22;4255;48.730;9.156;2023-02-17T15:38:48;13.00;99.90
8436;DHT22;4255;48.730;9.156;2023-02-17T15:41:17;13.10;99.90
8436;DHT22;4255;48.730;9.156;2023-02-17T15:43:46;13.20;99.90
8436;DHT22;4255;48.730;9.156;2023-02-17T15:46:14;13.10;99.90
8436;DHT22;4255;48.730;9.156;2023-02-17T15:48:40;13.00;99.90
8436;DHT22;4255;48.730;9.156;2023-02-17T15:51:12;12.90;99.90
8436;DHT22;4255;48.730;9.156;2023-02-17T15:53:39;12.80;99.90
8436;DHT22;4255;48.730;9.156;2023-02-17T15:56:22;12.90;99.90
8436;DHT22;4255;48.730;9.156;2023-02-17T15:58:50;12.90;99.90
8436;DHT22;4255;48.730;9.156;2023-02-17T16:01:36;12.80;99.90
8436;DHT22;4255;48.730;9.156;2023-02-17T16:04:02;12.90;99.90
8436;DHT22;4255;48.730;9.156;2023-02-17T16:06:29;12.60;99.90
8436;DHT22;4255;48.730;9.156;2023-02-17T16:08:55;12.60;99.90
8436;DHT22;4255;48.730;9.156;2023-02-17T16:11:23;12.50;99.90
8436;DHT22;4255;48.730;9.156;2023-02-17T16:13:50;12.60;99.90
8436;DHT22;4255;48.730;9.156;2023-02-17T16:16:18;12.60;99.90
8436;DHT22;4255;48.730;9.156;2023-02-17T16:18:48;12.70;99.90
8436;DHT22;4255;48.730;9.156;2023-02-17T16:21:14;12.60;99.90
8436;DHT22;4255;48.730;9.156;2023-02-17T16:23:40;12.50;99.90
8436;DHT22;4255;48.730;9.156;2023-02-17T16:26:24;12.60;99.90
8436;DHT22;4255;48.730;9.156;2023-02-17T16:28:50;12.70;99.90
8436;DHT22;4255;48.730;9.156;2023-02-17T16:31:15;12.70;99.90
8436;DHT22;4255;48.730;9.156;2023-02-17T16:33:41;12.50;99.90
8436;DHT22;4255;48.730;9.156;2023-02-17T16:36:14;12.50;99.90
8436;DHT22;4255;48.730;9.156;2023-02-17T16:38:41;12.60;99.90
8436;DHT22;4255;48.730;9.156;2023-02-17T16:41:14;12.60;99.90
8436;DHT22;4255;48.730;9.156;2023-02-17T16:43:41;12.70;99.90
8436;DHT22;4255;48.730;9.156;2023-02-17T16:46:23;12.60;99.90
8436;DHT22;4255;48.730;9.156;2023-02-17T16:48:52;12.60;99.90
8436;DHT22;4255;48.730;9.156;2023-02-17T16:51:17;12.60;99.90
8436;DHT22;4255;48.730;9.156;2023-02-17T16:53:43;12.60;99.90
8436;DHT22;4255;48.730;9.156;2023-02-17T16:56:18;12.60;99.90
8436;DHT22;4255;48.730;9.156;2023-02-17T16:58:45;12.60;99.90
8436;DHT22;4255;48.730;9.156;2023-02-17T17:01:11;12.70;99.90
8436;DHT22;4255;48.730;9.156;2023-02-17T17:03:38;12.70;99.90
8436;DHT22;4255;48.730;9.156;2023-02-17T17:08:42;12.90;99.90
8436;DHT22;4255;48.730;9.156;2023-02-17T17:11:15;12.90;99.90
8436;DHT22;4255;48.730;9.156;2023-02-17T17:13:43;12.90;99.90
8436;DHT22;4255;48.730;9.156;2023-02-17T17:16:14;13.00;99.90
8436;DHT22;4255;48.730;9.156;2023-02-17T17:18:40;13.00;99.90
8436;DHT22;4255;48.730;9.156;2023-02-17T17:21:11;13.00;99.90
8436;DHT22;4255;48.730;9.156;2023-02-17T17:23:38;12.90;99.90
8436;DHT22;4255;48.730;9.156;2023-02-17T17:28:40;12.90;99.90
8436;DHT22;4255;48.730;9.156;2023-02-17T17:31:05;13.00;99.90
8436;DHT22;4255;48.730;9.156;2023-02-17T17:33:31;13.00;99.90
8436;DHT22;4255;48.730;9.156;2023-02-17T17:35:56;13.00;99.90
8436;DHT22;4255;48.730;9.156;2023-02-17T17:38:22;13.00;99.90
8436;DHT22;4255;48.730;9.156;2023-02-17T17:40:48;12.90;99.90
8436;DHT22;4255;48.730;9.156;2023-02-17T17:43:15;12.90;99.90
8436;DHT22;4255;48.730;9.156;2023-02-17T17:45:41;12.90;99.90